If you wish to contribute or participate in the discussions about articles you are invited to join SKYbrary as a registered user

 Actions

Eareckson Air Station

From SKYbrary Wiki

PASY
Airport
ICAO: PASY – IATA: SYA
Summary
Name Eareckson Air Station
Region North America
Territory Alaska US.gif
Location , Alaska
Serving Shemya
Elevation 28.956 m
95 ft
95 ft28.956 m
Type medium airport
Coordinates 52° 42' 44.19" N, 174° 6' 49.03" E
Runways
Designator Length Width Surface ROPS
10/28 3048 m10,000 ft
46 m150.919 ft
ASP yes/yes


METAR
Observation PASY 250059Z 15009KT 10SM OVC010 05/02 A3021 RMK AO2A CIG 009V014 SLP233 T00460023 $
Station Shemya, Eareckson AFB
Date/Time 25 May 2019 00:59:00
Wind direction 150°
Wind speed 09 kts
Lowest cloud amount overcast
Temperature 4.6°C
Dew point 2.3°C
Humidity 85%
QNH hPa
Weather condition n/a